sensor_id;sensor_type;location;lat;lon;timestamp;P1;durP1;ratioP1;P2;durP2;ratioP2
13985;SDS011;7067;51.832;8.296;2023-04-28T00:01:22;6.47;;;3.58;;
13985;SDS011;7067;51.832;8.296;2023-04-28T00:03:47;6.25;;;3.38;;
13985;SDS011;7067;51.832;8.296;2023-04-28T00:06:12;6.00;;;3.72;;
13985;SDS011;7067;51.832;8.296;2023-04-28T00:08:38;6.68;;;3.38;;
13985;SDS011;7067;51.832;8.296;2023-04-28T00:11:08;4.65;;;3.38;;
13985;SDS011;7067;51.832;8.296;2023-04-28T00:13:34;5.10;;;3.33;;
13985;SDS011;7067;51.832;8.296;2023-04-28T00:15:59;3.25;;;3.00;;
13985;SDS011;7067;51.832;8.296;2023-04-28T00:18:25;5.38;;;3.20;;
13985;SDS011;7067;51.832;8.296;2023-04-28T00:20:51;4.45;;;3.17;;
13985;SDS011;7067;51.832;8.296;2023-04-28T00:23:16;6.47;;;3.50;;
13985;SDS011;7067;51.832;8.296;2023-04-28T00:25:41;5.95;;;4.10;;
13985;SDS011;7067;51.832;8.296;2023-04-28T00:28:06;6.35;;;3.53;;
13985;SDS011;7067;51.832;8.296;2023-04-28T00:30:32;5.75;;;3.78;;
13985;SDS011;7067;51.832;8.296;2023-04-28T00:32:57;7.97;;;4.22;;
13985;SDS011;7067;51.832;8.296;2023-04-28T00:35:22;6.20;;;3.63;;
13985;SDS011;7067;51.832;8.296;2023-04-28T00:37:48;8.13;;;3.80;;
13985;SDS011;7067;51.832;8.296;2023-04-28T00:40:13;6.43;;;4.50;;
13985;SDS011;7067;51.832;8.296;2023-04-28T00:42:38;9.38;;;4.63;;
13985;SDS011;7067;51.832;8.296;2023-04-28T00:45:04;4.88;;;4.05;;
13985;SDS011;7067;51.832;8.296;2023-04-28T00:47:34;6.18;;;4.53;;
13985;SDS011;7067;51.832;8.296;2023-04-28T00:50:00;5.05;;;4.10;;
13985;SDS011;7067;51.832;8.296;2023-04-28T00:52:26;4.97;;;4.13;;
13985;SDS011;7067;51.832;8.296;2023-04-28T00:54:52;8.93;;;4.82;;
13985;SDS011;7067;51.832;8.296;2023-04-28T00:57:17;6.35;;;4.63;;
13985;SDS011;7067;51.832;8.296;2023-04-28T00:59:43;6.38;;;4.05;;
13985;SDS011;7067;51.832;8.296;2023-04-28T01:02:08;9.68;;;4.45;;
13985;SDS011;7067;51.832;8.296;2023-04-28T01:04:33;7.07;;;4.90;;
13985;SDS011;7067;51.832;8.296;2023-04-28T01:06:59;8.55;;;5.03;;
13985;SDS011;7067;51.832;8.296;2023-04-28T01:09:25;6.28;;;4.63;;
13985;SDS011;7067;51.832;8.296;2023-04-28T01:11:51;6.68;;;4.93;;
13985;SDS011;7067;51.832;8.296;2023-04-28T01:14:16;7.22;;;5.63;;
13985;SDS011;7067;51.832;8.296;2023-04-28T01:16:41;6.00;;;5.00;;
13985;SDS011;7067;51.832;8.296;2023-04-28T01:19:07;6.40;;;4.97;;
13985;SDS011;7067;51.832;8.296;2023-04-28T01:21:39;6.18;;;5.18;;
13985;SDS011;7067;51.832;8.296;2023-04-28T01:24:05;6.32;;;5.07;;
13985;SDS011;7067;51.832;8.296;2023-04-28T01:26:30;7.78;;;4.93;;
13985;SDS011;7067;51.832;8.296;2023-04-28T01:28:56;6.43;;;4.90;;
13985;SDS011;7067;51.832;8.296;2023-04-28T01:31:21;5.97;;;5.38;;
13985;SDS011;7067;51.832;8.296;2023-04-28T01:33:46;10.27;;;5.80;;
13985;SDS011;7067;51.832;8.296;2023-04-28T01:36:11;8.40;;;5.32;;
13985;SDS011;7067;51.832;8.296;2023-04-28T01:38:37;7.63;;;5.88;;
13985;SDS011;7067;51.832;8.296;2023-04-28T01:41:02;6.05;;;5.45;;
13985;SDS011;7067;51.832;8.296;2023-04-28T01:43:28;8.43;;;4.90;;
13985;SDS011;7067;51.832;8.296;2023-04-28T01:45:53;8.05;;;5.43;;
13985;SDS011;7067;51.832;8.296;2023-04-28T01:48:18;9.57;;;5.45;;
13985;SDS011;7067;51.832;8.296;2023-04-28T01:50:44;7.22;;;5.60;;
13985;SDS011;7067;51.832;8.296;2023-04-28T01:53:09;8.02;;;5.55;;
13985;SDS011;7067;51.832;8.296;2023-04-28T01:55:36;7.40;;;5.28;;
13985;SDS011;7067;51.832;8.296;2023-04-28T01:58:23;9.20;;;6.43;;
13985;SDS011;7067;51.832;8.296;2023-04-28T02:00:51;9.00;;;5.60;;
13985;SDS011;7067;51.832;8.296;2023-04-28T02:03:17;7.10;;;6.00;;
13985;SDS011;7067;51.832;8.296;2023-04-28T02:05:42;9.98;;;5.72;;
13985;SDS011;7067;51.832;8.296;2023-04-28T02:08:07;12.35;;;6.40;;
13985;SDS011;7067;51.832;8.296;2023-04-28T02:10:33;10.85;;;5.65;;
13985;SDS011;7067;51.832;8.296;2023-04-28T02:12:58;7.68;;;6.30;;
13985;SDS011;7067;51.832;8.296;2023-04-28T02:15:23;6.20;;;5.60;;
13985;SDS011;7067;51.832;8.296;2023-04-28T02:17:48;8.13;;;6.45;;
13985;SDS011;7067;51.832;8.296;2023-04-28T02:20:14;7.88;;;6.72;;
13985;SDS011;7067;51.832;8.296;2023-04-28T02:22:39;10.18;;;6.53;;
13985;SDS011;7067;51.832;8.296;2023-04-28T02:25:05;8.48;;;7.15;;
13985;SDS011;7067;51.832;8.296;2023-04-28T02:27:31;11.55;;;6.75;;
13985;SDS011;7067;51.832;8.296;2023-04-28T02:29:57;7.75;;;6.20;;
13985;SDS011;7067;51.832;8.296;2023-04-28T02:32:22;11.88;;;6.43;;
13985;SDS011;7067;51.832;8.296;2023-04-28T02:34:51;10.02;;;6.80;;
13985;SDS011;7067;51.832;8.296;2023-04-28T02:37:18;9.00;;;6.70;;
13985;SDS011;7067;51.832;8.296;2023-04-28T02:39:43;10.43;;;7.05;;
13985;SDS011;7067;51.832;8.296;2023-04-28T02:42:08;11.68;;;6.60;;
13985;SDS011;7067;51.832;8.296;2023-04-28T02:44:34;10.38;;;6.90;;
13985;SDS011;7067;51.832;8.296;2023-04-28T02:46:59;9.02;;;6.65;;
13985;SDS011;7067;51.832;8.296;2023-04-28T02:49:25;8.23;;;7.32;;
13985;SDS011;7067;51.832;8.296;2023-04-28T02:51:51;9.95;;;6.85;;
13985;SDS011;7067;51.832;8.296;2023-04-28T02:54:16;7.10;;;6.15;;
13985;SDS011;7067;51.832;8.296;2023-04-28T02:56:51;10.48;;;6.82;;
13985;SDS011;7067;51.832;8.296;2023-04-28T02:59:16;8.48;;;6.70;;
13985;SDS011;7067;51.832;8.296;2023-04-28T03:01:41;8.57;;;6.65;;
13985;SDS011;7067;51.832;8.296;2023-04-28T03:04:06;15.13;;;7.00;;
13985;SDS011;7067;51.832;8.296;2023-04-28T03:06:32;9.88;;;7.47;;
13985;SDS011;7067;51.832;8.296;2023-04-28T03:08:57;10.10;;;7.22;;
13985;SDS011;7067;51.832;8.296;2023-04-28T03:11:23;8.82;;;6.68;;
13985;SDS011;7067;51.832;8.296;2023-04-28T03:13:48;10.15;;;7.57;;
13985;SDS011;7067;51.832;8.296;2023-04-28T03:16:13;7.63;;;6.90;;
13985;SDS011;7067;51.832;8.296;2023-04-28T03:18:38;8.63;;;6.93;;
13985;SDS011;7067;51.832;8.296;2023-04-28T03:21:04;10.38;;;7.30;;
13985;SDS011;7067;51.832;8.296;2023-04-28T03:23:30;9.15;;;7.03;;
13985;SDS011;7067;51.832;8.296;2023-04-28T03:25:55;11.25;;;6.93;;
13985;SDS011;7067;51.832;8.296;2023-04-28T03:28:20;14.18;;;7.45;;
13985;SDS011;7067;51.832;8.296;2023-04-28T03:30:46;13.45;;;7.45;;
13985;SDS011;7067;51.832;8.296;2023-04-28T03:33:11;9.68;;;7.18;;
13985;SDS011;7067;51.832;8.296;2023-04-28T03:35:36;12.13;;;7.80;;
13985;SDS011;7067;51.832;8.296;2023-04-28T03:38:02;8.70;;;6.82;;
13985;SDS011;7067;51.832;8.296;2023-04-28T03:40:27;8.70;;;7.40;;
13985;SDS011;7067;51.832;8.296;2023-04-28T03:42:52;9.60;;;7.22;;
13985;SDS011;7067;51.832;8.296;2023-04-28T03:45:18;13.90;;;8.00;;
13985;SDS011;7067;51.832;8.296;2023-04-28T03:47:43;8.90;;;6.82;;
13985;SDS011;7067;51.832;8.296;2023-04-28T03:50:08;9.48;;;7.20;;
13985;SDS011;7067;51.832;8.296;2023-04-28T03:52:34;13.38;;;7.57;;
13985;SDS011;7067;51.832;8.296;2023-04-28T03:54:59;9.68;;;7.75;;
13985;SDS011;7067;51.832;8.296;2023-04-28T03:57:25;9.70;;;7.30;;
13985;SDS011;7067;51.832;8.296;2023-04-28T03:59:50;10.98;;;7.50;;
13985;SDS011;7067;51.832;8.296;2023-04-28T04:02:16;14.73;;;7.70;;
13985;SDS011;7067;51.832;8.296;2023-04-28T04:04:41;16.33;;;7.65;;
13985;SDS011;7067;51.832;8.296;2023-04-28T04:07:06;8.38;;;7.57;;
13985;SDS011;7067;51.832;8.296;2023-04-28T04:09:32;8.57;;;7.30;;
13985;SDS011;7067;51.832;8.296;2023-04-28T04:11:57;10.20;;;7.55;;
13985;SDS011;7067;51.832;8.296;2023-04-28T04:14:22;13.27;;;8.25;;
13985;SDS011;7067;51.832;8.296;2023-04-28T04:16:48;13.63;;;8.65;;
13985;SDS011;7067;51.832;8.296;2023-04-28T04:19:13;9.00;;;8.20;;
13985;SDS011;7067;51.832;8.296;2023-04-28T04:21:38;12.05;;;8.57;;
13985;SDS011;7067;51.832;8.296;2023-04-28T04:24:05;11.30;;;9.88;;
13985;SDS011;7067;51.832;8.296;2023-04-28T04:26:30;13.23;;;9.70;;
13985;SDS011;7067;51.832;8.296;2023-04-28T04:28:56;10.70;;;9.65;;
13985;SDS011;7067;51.832;8.296;2023-04-28T04:31:21;11.10;;;9.65;;
13985;SDS011;7067;51.832;8.296;2023-04-28T04:33:47;12.55;;;10.00;;
13985;SDS011;7067;51.832;8.296;2023-04-28T04:36:12;10.77;;;9.73;;
13985;SDS011;7067;51.832;8.296;2023-04-28T04:38:38;14.10;;;11.23;;
13985;SDS011;7067;51.832;8.296;2023-04-28T04:41:03;13.00;;;11.00;;
13985;SDS011;7067;51.832;8.296;2023-04-28T04:43:29;13.85;;;11.23;;
13985;SDS011;7067;51.832;8.296;2023-04-28T04:45:54;14.88;;;11.52;;
13985;SDS011;7067;51.832;8.296;2023-04-28T04:48:20;15.40;;;11.00;;
13985;SDS011;7067;51.832;8.296;2023-04-28T04:50:45;20.25;;;10.98;;
13985;SDS011;7067;51.832;8.296;2023-04-28T04:53:10;12.95;;;11.57;;
13985;SDS011;7067;51.832;8.296;2023-04-28T04:55:36;13.15;;;11.85;;
13985;SDS011;7067;51.832;8.296;2023-04-28T04:58:02;16.33;;;12.02;;
13985;SDS011;7067;51.832;8.296;2023-04-28T05:00:27;19.60;;;12.90;;
13985;SDS011;7067;51.832;8.296;2023-04-28T05:02:53;17.13;;;11.98;;
13985;SDS011;7067;51.832;8.296;2023-04-28T05:05:18;13.90;;;11.32;;
13985;SDS011;7067;51.832;8.296;2023-04-28T05:07:43;12.88;;;11.50;;
13985;SDS011;7067;51.832;8.296;2023-04-28T05:10:09;12.02;;;10.75;;
13985;SDS011;7067;51.832;8.296;2023-04-28T05:12:35;13.55;;;11.07;;
13985;SDS011;7067;51.832;8.296;2023-04-28T05:15:01;12.15;;;11.05;;
13985;SDS011;7067;51.832;8.296;2023-04-28T05:17:26;12.25;;;11.07;;
13985;SDS011;7067;51.832;8.296;2023-04-28T05:19:52;16.60;;;11.63;;
13985;SDS011;7067;51.832;8.296;2023-04-28T05:22:17;14.73;;;11.50;;
13985;SDS011;7067;51.832;8.296;2023-04-28T05:24:42;12.45;;;11.20;;
13985;SDS011;7067;51.832;8.296;2023-04-28T05:27:08;13.05;;;11.70;;
13985;SDS011;7067;51.832;8.296;2023-04-28T05:29:33;12.65;;;11.23;;
13985;SDS011;7067;51.832;8.296;2023-04-28T05:31:58;12.30;;;10.43;;
13985;SDS011;7067;51.832;8.296;2023-04-28T05:34:24;13.10;;;11.65;;
13985;SDS011;7067;51.832;8.296;2023-04-28T05:36:50;12.90;;;11.60;;
13985;SDS011;7067;51.832;8.296;2023-04-28T05:39:15;15.70;;;11.77;;
13985;SDS011;7067;51.832;8.296;2023-04-28T05:41:41;12.48;;;10.73;;
13985;SDS011;7067;51.832;8.296;2023-04-28T05:44:06;12.73;;;11.40;;
13985;SDS011;7067;51.832;8.296;2023-04-28T05:46:32;12.43;;;11.13;;
13985;SDS011;7067;51.832;8.296;2023-04-28T05:48:57;12.77;;;11.48;;
13985;SDS011;7067;51.832;8.296;2023-04-28T05:51:22;15.65;;;10.40;;
13985;SDS011;7067;51.832;8.296;2023-04-28T05:53:51;18.17;;;11.65;;
13985;SDS011;7067;51.832;8.296;2023-04-28T05:56:16;12.95;;;11.25;;
13985;SDS011;7067;51.832;8.296;2023-04-28T05:58:41;15.07;;;11.48;;
13985;SDS011;7067;51.832;8.296;2023-04-28T06:01:11;18.63;;;10.82;;
13985;SDS011;7067;51.832;8.296;2023-04-28T06:03:36;14.52;;;10.88;;
13985;SDS011;7067;51.832;8.296;2023-04-28T06:06:02;15.80;;;11.18;;
13985;SDS011;7067;51.832;8.296;2023-04-28T06:08:27;13.88;;;11.80;;
13985;SDS011;7067;51.832;8.296;2023-04-28T06:10:52;12.15;;;10.85;;
13985;SDS011;7067;51.832;8.296;2023-04-28T06:13:18;18.38;;;12.10;;
13985;SDS011;7067;51.832;8.296;2023-04-28T06:15:43;12.32;;;11.13;;
13985;SDS011;7067;51.832;8.296;2023-04-28T06:18:08;13.23;;;11.52;;
13985;SDS011;7067;51.832;8.296;2023-04-28T06:20:35;14.00;;;12.30;;
13985;SDS011;7067;51.832;8.296;2023-04-28T06:23:00;13.57;;;11.95;;
13985;SDS011;7067;51.832;8.296;2023-04-28T06:25:27;16.38;;;12.15;;
13985;SDS011;7067;51.832;8.296;2023-04-28T06:27:53;19.05;;;12.50;;
13985;SDS011;7067;51.832;8.296;2023-04-28T06:30:18;13.32;;;12.02;;
13985;SDS011;7067;51.832;8.296;2023-04-28T06:32:45;15.23;;;11.93;;
13985;SDS011;7067;51.832;8.296;2023-04-28T06:35:10;16.30;;;11.80;;
13985;SDS011;7067;51.832;8.296;2023-04-28T06:37:35;13.15;;;11.88;;
13985;SDS011;7067;51.832;8.296;2023-04-28T06:40:01;12.73;;;11.13;;
13985;SDS011;7067;51.832;8.296;2023-04-28T06:42:26;15.70;;;11.80;;
13985;SDS011;7067;51.832;8.296;2023-04-28T06:44:52;12.25;;;11.13;;
13985;SDS011;7067;51.832;8.296;2023-04-28T06:47:17;14.05;;;10.68;;
13985;SDS011;7067;51.832;8.296;2023-04-28T06:49:43;13.35;;;11.85;;
13985;SDS011;7067;51.832;8.296;2023-04-28T06:52:09;14.52;;;12.57;;
13985;SDS011;7067;51.832;8.296;2023-04-28T06:54:34;14.82;;;11.35;;
13985;SDS011;7067;51.832;8.296;2023-04-28T06:57:02;14.77;;;11.18;;
13985;SDS011;7067;51.832;8.296;2023-04-28T06:59:27;12.25;;;11.13;;
13985;SDS011;7067;51.832;8.296;2023-04-28T07:01:53;15.95;;;11.30;;
13985;SDS011;7067;51.832;8.296;2023-04-28T07:04:18;12.60;;;11.32;;
13985;SDS011;7067;51.832;8.296;2023-04-28T07:06:43;14.63;;;11.50;;
13985;SDS011;7067;51.832;8.296;2023-04-28T07:09:08;12.48;;;10.15;;
13985;SDS011;7067;51.832;8.296;2023-04-28T07:11:34;12.50;;;10.82;;
13985;SDS011;7067;51.832;8.296;2023-04-28T07:13:59;14.65;;;11.05;;
13985;SDS011;7067;51.832;8.296;2023-04-28T07:16:25;14.57;;;11.20;;
13985;SDS011;7067;51.832;8.296;2023-04-28T07:18:50;12.25;;;11.02;;
13985;SDS011;7067;51.832;8.296;2023-04-28T07:21:16;13.68;;;11.05;;
13985;SDS011;7067;51.832;8.296;2023-04-28T07:23:41;18.52;;;11.10;;
13985;SDS011;7067;51.832;8.296;2023-04-28T07:26:07;15.50;;;11.82;;
13985;SDS011;7067;51.832;8.296;2023-04-28T07:28:33;15.98;;;11.48;;
13985;SDS011;7067;51.832;8.296;2023-04-28T07:30:58;12.93;;;11.63;;
13985;SDS011;7067;51.832;8.296;2023-04-28T07:33:24;11.57;;;10.50;;
13985;SDS011;7067;51.832;8.296;2023-04-28T07:35:49;17.05;;;11.40;;
13985;SDS011;7067;51.832;8.296;2023-04-28T07:38:16;11.40;;;10.43;;
13985;SDS011;7067;51.832;8.296;2023-04-28T07:40:42;11.52;;;10.30;;
13985;SDS011;7067;51.832;8.296;2023-04-28T07:43:08;12.18;;;10.82;;
13985;SDS011;7067;51.832;8.296;2023-04-28T07:45:35;12.07;;;9.75;;
13985;SDS011;7067;51.832;8.296;2023-04-28T07:48:02;11.35;;;9.80;;
13985;SDS011;7067;51.832;8.296;2023-04-28T07:50:28;11.27;;;10.00;;
13985;SDS011;7067;51.832;8.296;2023-04-28T07:52:53;11.40;;;10.18;;
13985;SDS011;7067;51.832;8.296;2023-04-28T07:55:18;10.50;;;9.38;;
13985;SDS011;7067;51.832;8.296;2023-04-28T07:57:44;11.68;;;9.43;;
13985;SDS011;7067;51.832;8.296;2023-04-28T08:00:09;10.73;;;8.57;;
13985;SDS011;7067;51.832;8.296;2023-04-28T08:02:35;10.82;;;8.68;;
13985;SDS011;7067;51.832;8.296;2023-04-28T08:05:01;9.68;;;8.65;;
13985;SDS011;7067;51.832;8.296;2023-04-28T08:07:27;10.18;;;9.13;;
13985;SDS011;7067;51.832;8.296;2023-04-28T08:09:52;10.43;;;8.77;;
13985;SDS011;7067;51.832;8.296;2023-04-28T08:12:19;9.57;;;8.55;;
13985;SDS011;7067;51.832;8.296;2023-04-28T08:14:44;12.30;;;8.57;;
13985;SDS011;7067;51.832;8.296;2023-04-28T08:17:09;11.40;;;7.85;;
13985;SDS011;7067;51.832;8.296;2023-04-28T08:19:35;10.15;;;8.55;;
13985;SDS011;7067;51.832;8.296;2023-04-28T08:22:01;9.52;;;8.63;;
13985;SDS011;7067;51.832;8.296;2023-04-28T08:24:29;10.68;;;8.40;;
13985;SDS011;7067;51.832;8.296;2023-04-28T08:26:58;11.38;;;9.20;;
13985;SDS011;7067;51.832;8.296;2023-04-28T08:29:26;8.15;;;7.45;;
13985;SDS011;7067;51.832;8.296;2023-04-28T08:31:52;12.57;;;8.45;;
13985;SDS011;7067;51.832;8.296;2023-04-28T08:34:18;10.27;;;7.97;;
13985;SDS011;7067;51.832;8.296;2023-04-28T08:36:43;8.55;;;7.50;;
13985;SDS011;7067;51.832;8.296;2023-04-28T08:39:08;9.93;;;7.70;;
13985;SDS011;7067;51.832;8.296;2023-04-28T08:41:35;8.65;;;7.95;;
13985;SDS011;7067;51.832;8.296;2023-04-28T08:44:05;9.65;;;7.60;;
13985;SDS011;7067;51.832;8.296;2023-04-28T08:48:58;8.43;;;7.60;;
13985;SDS011;7067;51.832;8.296;2023-04-28T08:51:27;9.52;;;8.13;;
13985;SDS011;7067;51.832;8.296;2023-04-28T08:53:58;9.38;;;7.85;;
13985;SDS011;7067;51.832;8.296;2023-04-28T08:56:23;8.48;;;7.03;;
13985;SDS011;7067;51.832;8.296;2023-04-28T08:58:50;8.32;;;7.53;;
13985;SDS011;7067;51.832;8.296;2023-04-28T09:01:16;8.60;;;7.82;;
13985;SDS011;7067;51.832;8.296;2023-04-28T09:03:41;8.68;;;7.68;;
13985;SDS011;7067;51.832;8.296;2023-04-28T09:06:07;9.80;;;8.73;;
13985;SDS011;7067;51.832;8.296;2023-04-28T09:08:32;8.80;;;7.80;;
13985;SDS011;7067;51.832;8.296;2023-04-28T09:11:07;9.20;;;8.30;;
13985;SDS011;7067;51.832;8.296;2023-04-28T09:13:33;8.73;;;7.95;;
13985;SDS011;7067;51.832;8.296;2023-04-28T09:15:59;9.02;;;8.23;;
13985;SDS011;7067;51.832;8.296;2023-04-28T09:18:25;9.27;;;8.25;;
13985;SDS011;7067;51.832;8.296;2023-04-28T09:20:50;9.10;;;8.25;;
13985;SDS011;7067;51.832;8.296;2023-04-28T09:23:19;12.52;;;8.82;;
13985;SDS011;7067;51.832;8.296;2023-04-28T09:28:23;9.32;;;8.45;;
13985;SDS011;7067;51.832;8.296;2023-04-28T09:30:49;11.80;;;8.52;;
13985;SDS011;7067;51.832;8.296;2023-04-28T09:33:14;8.95;;;8.15;;
13985;SDS011;7067;51.832;8.296;2023-04-28T09:35:42;8.95;;;8.13;;
13985;SDS011;7067;51.832;8.296;2023-04-28T09:38:09;9.25;;;8.35;;
13985;SDS011;7067;51.832;8.296;2023-04-28T09:43:28;9.63;;;8.45;;
13985;SDS011;7067;51.832;8.296;2023-04-28T09:46:04;10.20;;;7.80;;
13985;SDS011;7067;51.832;8.296;2023-04-28T09:51:00;9.25;;;8.13;;
13985;SDS011;7067;51.832;8.296;2023-04-28T09:53:27;10.77;;;8.05;;
13985;SDS011;7067;51.832;8.296;2023-04-28T09:55:53;12.00;;;8.82;;
13985;SDS011;7067;51.832;8.296;2023-04-28T09:58:20;8.70;;;7.72;;
13985;SDS011;7067;51.832;8.296;2023-04-28T10:00:47;9.52;;;8.63;;
13985;SDS011;7067;51.832;8.296;2023-04-28T10:03:16;8.70;;;7.90;;
13985;SDS011;7067;51.832;8.296;2023-04-28T10:05:42;9.43;;;7.43;;
13985;SDS011;7067;51.832;8.296;2023-04-28T10:08:08;7.53;;;6.80;;
13985;SDS011;7067;51.832;8.296;2023-04-28T10:10:33;9.50;;;7.35;;
13985;SDS011;7067;51.832;8.296;2023-04-28T10:12:59;10.32;;;7.15;;
13985;SDS011;7067;51.832;8.296;2023-04-28T10:15:25;8.68;;;7.30;;
13985;SDS011;7067;51.832;8.296;2023-04-28T10:17:50;8.73;;;6.90;;
13985;SDS011;7067;51.832;8.296;2023-04-28T10:20:17;10.75;;;7.60;;
13985;SDS011;7067;51.832;8.296;2023-04-28T10:22:59;8.32;;;7.47;;
13985;SDS011;7067;51.832;8.296;2023-04-28T10:25:36;8.77;;;6.82;;
13985;SDS011;7067;51.832;8.296;2023-04-28T10:28:06;7.85;;;7.22;;
13985;SDS011;7067;51.832;8.296;2023-04-28T10:30:32;8.02;;;7.15;;
13985;SDS011;7067;51.832;8.296;2023-04-28T10:35:39;9.13;;;7.60;;
13985;SDS011;7067;51.832;8.296;2023-04-28T10:38:15;7.75;;;7.05;;
13985;SDS011;7067;51.832;8.296;2023-04-28T10:43:14;7.75;;;7.10;;
13985;SDS011;7067;51.832;8.296;2023-04-28T10:56:14;8.00;;;7.40;;
13985;SDS011;7067;51.832;8.296;2023-04-28T10:58:48;8.30;;;7.55;;
13985;SDS011;7067;51.832;8.296;2023-04-28T11:01:23;7.75;;;7.15;;
13985;SDS011;7067;51.832;8.296;2023-04-28T11:03:50;8.15;;;7.28;;
13985;SDS011;7067;51.832;8.296;2023-04-28T11:06:44;7.63;;;6.93;;
13985;SDS011;7067;51.832;8.296;2023-04-28T11:16:56;8.52;;;7.82;;
13985;SDS011;7067;51.832;8.296;2023-04-28T11:21:53;7.82;;;6.80;;
13985;SDS011;7067;51.832;8.296;2023-04-28T11:24:20;8.52;;;7.82;;
13985;SDS011;7067;51.832;8.296;2023-04-28T11:26:47;8.30;;;7.57;;
13985;SDS011;7067;51.832;8.296;2023-04-28T11:29:12;9.13;;;7.40;;
13985;SDS011;7067;51.832;8.296;2023-04-28T11:31:39;8.65;;;7.82;;
13985;SDS011;7067;51.832;8.296;2023-04-28T11:34:10;9.43;;;8.10;;
13985;SDS011;7067;51.832;8.296;2023-04-28T11:36:38;8.13;;;7.38;;
13985;SDS011;7067;51.832;8.296;2023-04-28T11:39:05;10.35;;;9.02;;
13985;SDS011;7067;51.832;8.296;2023-04-28T11:41:34;9.52;;;8.60;;
13985;SDS011;7067;51.832;8.296;2023-04-28T11:46:47;8.50;;;7.75;;
13985;SDS011;7067;51.832;8.296;2023-04-28T11:49:19;9.00;;;8.15;;
13985;SDS011;7067;51.832;8.296;2023-04-28T11:51:46;9.38;;;8.48;;
13985;SDS011;7067;51.832;8.296;2023-04-28T11:54:16;8.73;;;7.93;;
13985;SDS011;7067;51.832;8.296;2023-04-28T11:56:44;8.80;;;8.07;;
13985;SDS011;7067;51.832;8.296;2023-04-28T11:59:11;8.48;;;7.68;;
13985;SDS011;7067;51.832;8.296;2023-04-28T12:01:45;8.00;;;7.40;;
13985;SDS011;7067;51.832;8.296;2023-04-28T12:07:03;9.02;;;7.93;;
13985;SDS011;7067;51.832;8.296;2023-04-28T12:09:30;8.77;;;8.18;;
13985;SDS011;7067;51.832;8.296;2023-04-28T12:12:02;7.93;;;7.13;;
13985;SDS011;7067;51.832;8.296;2023-04-28T12:14:29;8.20;;;7.60;;
13985;SDS011;7067;51.832;8.296;2023-04-28T12:16:57;8.23;;;7.60;;
13985;SDS011;7067;51.832;8.296;2023-04-28T12:19:22;8.52;;;7.93;;
13985;SDS011;7067;51.832;8.296;2023-04-28T12:22:04;8.95;;;8.25;;
13985;SDS011;7067;51.832;8.296;2023-04-28T12:24:30;8.75;;;8.05;;
13985;SDS011;7067;51.832;8.296;2023-04-28T12:27:15;8.93;;;8.13;;
13985;SDS011;7067;51.832;8.296;2023-04-28T12:29:41;8.43;;;7.70;;
13985;SDS011;7067;51.832;8.296;2023-04-28T12:32:08;8.75;;;8.07;;
13985;SDS011;7067;51.832;8.296;2023-04-28T12:34:35;9.90;;;8.85;;
13985;SDS011;7067;51.832;8.296;2023-04-28T12:37:01;8.77;;;8.05;;
13985;SDS011;7067;51.832;8.296;2023-04-28T12:39:27;8.63;;;7.95;;
13985;SDS011;7067;51.832;8.296;2023-04-28T12:41:52;8.70;;;7.70;;
13985;SDS011;7067;51.832;8.296;2023-04-28T12:44:19;8.35;;;7.65;;
13985;SDS011;7067;51.832;8.296;2023-04-28T12:46:46;8.23;;;7.47;;
13985;SDS011;7067;51.832;8.296;2023-04-28T12:49:11;8.73;;;7.93;;
13985;SDS011;7067;51.832;8.296;2023-04-28T12:51:37;8.40;;;7.75;;
13985;SDS011;7067;51.832;8.296;2023-04-28T12:54:03;10.70;;;8.65;;
13985;SDS011;7067;51.832;8.296;2023-04-28T12:56:29;8.55;;;7.75;;
13985;SDS011;7067;51.832;8.296;2023-04-28T12:58:54;8.25;;;7.60;;
13985;SDS011;7067;51.832;8.296;2023-04-28T13:01:19;8.68;;;7.88;;
13985;SDS011;7067;51.832;8.296;2023-04-28T13:03:45;8.82;;;8.00;;
13985;SDS011;7067;51.832;8.296;2023-04-28T13:06:11;8.85;;;8.15;;
13985;SDS011;7067;51.832;8.296;2023-04-28T13:08:37;8.25;;;7.57;;
13985;SDS011;7067;51.832;8.296;2023-04-28T13:11:03;8.57;;;7.85;;
13985;SDS011;7067;51.832;8.296;2023-04-28T13:13:29;8.52;;;7.60;;
13985;SDS011;7067;51.832;8.296;2023-04-28T13:15:55;8.85;;;8.05;;
13985;SDS011;7067;51.832;8.296;2023-04-28T13:18:21;8.65;;;7.88;;
13985;SDS011;7067;51.832;8.296;2023-04-28T13:20:47;8.85;;;7.28;;
13985;SDS011;7067;51.832;8.296;2023-04-28T13:23:13;8.32;;;7.63;;
13985;SDS011;7067;51.832;8.296;2023-04-28T13:25:38;9.13;;;8.27;;
13985;SDS011;7067;51.832;8.296;2023-04-28T13:28:03;10.13;;;8.40;;
13985;SDS011;7067;51.832;8.296;2023-04-28T13:30:29;10.10;;;8.60;;
13985;SDS011;7067;51.832;8.296;2023-04-28T13:32:54;10.43;;;9.57;;
13985;SDS011;7067;51.832;8.296;2023-04-28T13:35:20;10.10;;;8.77;;
13985;SDS011;7067;51.832;8.296;2023-04-28T13:37:45;10.50;;;9.60;;
13985;SDS011;7067;51.832;8.296;2023-04-28T13:40:11;9.43;;;8.65;;
13985;SDS011;7067;51.832;8.296;2023-04-28T13:42:36;11.20;;;8.77;;
13985;SDS011;7067;51.832;8.296;2023-04-28T13:45:02;12.23;;;9.82;;
13985;SDS011;7067;51.832;8.296;2023-04-28T13:47:28;10.10;;;9.10;;
13985;SDS011;7067;51.832;8.296;2023-04-28T13:49:56;9.73;;;8.88;;
13985;SDS011;7067;51.832;8.296;2023-04-28T13:52:22;10.05;;;9.05;;
13985;SDS011;7067;51.832;8.296;2023-04-28T13:54:47;10.70;;;9.60;;
13985;SDS011;7067;51.832;8.296;2023-04-28T13:57:13;10.07;;;9.07;;
13985;SDS011;7067;51.832;8.296;2023-04-28T13:59:38;12.40;;;8.95;;
13985;SDS011;7067;51.832;8.296;2023-04-28T14:02:04;10.38;;;9.43;;
13985;SDS011;7067;51.832;8.296;2023-04-28T14:04:29;9.98;;;8.90;;
13985;SDS011;7067;51.832;8.296;2023-04-28T14:06:54;10.23;;;9.52;;
13985;SDS011;7067;51.832;8.296;2023-04-28T14:09:20;10.63;;;9.68;;
13985;SDS011;7067;51.832;8.296;2023-04-28T14:11:45;11.00;;;10.07;;
13985;SDS011;7067;51.832;8.296;2023-04-28T14:14:10;11.95;;;10.93;;
13985;SDS011;7067;51.832;8.296;2023-04-28T14:16:36;12.05;;;10.93;;
13985;SDS011;7067;51.832;8.296;2023-04-28T14:19:02;12.45;;;11.15;;
13985;SDS011;7067;51.832;8.296;2023-04-28T14:21:27;13.02;;;11.82;;
13985;SDS011;7067;51.832;8.296;2023-04-28T14:23:52;12.60;;;11.40;;
13985;SDS011;7067;51.832;8.296;2023-04-28T14:26:18;12.57;;;11.30;;
13985;SDS011;7067;51.832;8.296;2023-04-28T14:28:43;13.35;;;12.00;;
13985;SDS011;7067;51.832;8.296;2023-04-28T14:31:09;11.15;;;10.25;;
13985;SDS011;7067;51.832;8.296;2023-04-28T14:33:55;13.02;;;11.57;;
13985;SDS011;7067;51.832;8.296;2023-04-28T14:36:20;12.55;;;11.52;;
13985;SDS011;7067;51.832;8.296;2023-04-28T14:38:46;12.55;;;11.25;;
13985;SDS011;7067;51.832;8.296;2023-04-28T14:41:11;12.48;;;11.18;;
13985;SDS011;7067;51.832;8.296;2023-04-28T14:43:36;12.38;;;11.20;;
13985;SDS011;7067;51.832;8.296;2023-04-28T14:46:02;11.13;;;10.00;;
13985;SDS011;7067;51.832;8.296;2023-04-28T14:48:28;9.65;;;8.55;;
13985;SDS011;7067;51.832;8.296;2023-04-28T14:50:54;9.07;;;8.48;;
13985;SDS011;7067;51.832;8.296;2023-04-28T14:53:19;9.52;;;8.70;;
13985;SDS011;7067;51.832;8.296;2023-04-28T14:55:45;12.43;;;11.27;;
13985;SDS011;7067;51.832;8.296;2023-04-28T14:58:10;10.60;;;9.60;;
13985;SDS011;7067;51.832;8.296;2023-04-28T15:00:36;12.30;;;11.40;;
13985;SDS011;7067;51.832;8.296;2023-04-28T15:03:01;14.73;;;13.40;;
13985;SDS011;7067;51.832;8.296;2023-04-28T15:05:27;14.90;;;13.65;;
13985;SDS011;7067;51.832;8.296;2023-04-28T15:07:53;14.88;;;13.68;;
13985;SDS011;7067;51.832;8.296;2023-04-28T15:10:18;14.70;;;13.52;;
13985;SDS011;7067;51.832;8.296;2023-04-28T15:12:43;14.38;;;13.27;;
13985;SDS011;7067;51.832;8.296;2023-04-28T15:15:09;16.30;;;14.70;;
13985;SDS011;7067;51.832;8.296;2023-04-28T15:17:35;17.42;;;16.02;;
13985;SDS011;7067;51.832;8.296;2023-04-28T15:20:00;18.02;;;16.45;;
13985;SDS011;7067;51.832;8.296;2023-04-28T15:22:25;18.83;;;17.02;;
13985;SDS011;7067;51.832;8.296;2023-04-28T15:24:51;19.58;;;17.88;;
13985;SDS011;7067;51.832;8.296;2023-04-28T15:27:16;18.77;;;17.17;;